createdAt,value
2018-05-15T00:00:17.899Z,997.58
2018-05-15T00:00:58.425Z,997.57
2018-05-15T00:01:38.950Z,997.54
2018-05-15T00:02:19.457Z,997.48
2018-05-15T00:02:59.994Z,997.58
2018-05-15T00:03:40.529Z,997.51
2018-05-15T00:04:21.049Z,997.52
2018-05-15T00:05:01.578Z,997.54
2018-05-15T00:05:42.107Z,997.54
2018-05-15T00:06:22.625Z,997.53
2018-05-15T00:07:03.143Z,997.53
2018-05-15T00:07:43.666Z,997.51
2018-05-15T00:08:24.199Z,997.5
2018-05-15T00:09:04.718Z,997.53
2018-05-15T00:09:45.255Z,997.56
2018-05-15T00:10:25.777Z,997.55
2018-05-15T00:11:06.307Z,997.56
2018-05-15T00:11:46.815Z,997.54
2018-05-15T00:12:27.351Z,997.56
2018-05-15T00:13:07.872Z,997.56
2018-05-15T00:13:48.396Z,997.61
2018-05-15T00:14:28.910Z,997.61
2018-05-15T00:15:09.422Z,997.61
2018-05-15T00:15:49.941Z,997.61
2018-05-15T00:16:30.474Z,997.64
2018-05-15T00:17:10.997Z,997.63
2018-05-15T00:17:51.512Z,997.61
2018-05-15T00:18:32.032Z,997.62
2018-05-15T00:19:12.566Z,997.61
2018-05-15T00:19:53.079Z,997.59
2018-05-15T00:20:33.619Z,997.61
2018-05-15T00:21:14.131Z,997.55
2018-05-15T00:21:54.649Z,997.56
2018-05-15T00:22:35.171Z,997.51
2018-05-15T00:23:15.714Z,997.52
2018-05-15T00:23:56.227Z,997.54
2018-05-15T00:24:36.766Z,997.53
2018-05-15T00:25:17.293Z,997.55
2018-05-15T00:25:57.815Z,997.53
2018-05-15T00:26:38.335Z,997.53
2018-05-15T00:27:18.860Z,997.51
2018-05-15T00:27:59.387Z,997.56
2018-05-15T00:28:39.905Z,997.55
2018-05-15T00:29:20.418Z,997.51
2018-05-15T00:30:00.935Z,997.5
2018-05-15T00:30:41.452Z,997.5
2018-05-15T00:31:21.976Z,997.48
2018-05-15T00:32:02.524Z,997.52
2018-05-15T00:32:43.035Z,997.55
2018-05-15T00:33:23.542Z,997.51
2018-05-15T00:34:04.064Z,997.49
2018-05-15T00:34:44.601Z,997.49
2018-05-15T00:35:25.119Z,997.53
2018-05-15T00:36:05.630Z,997.52
2018-05-15T00:36:46.180Z,997.54
2018-05-15T00:37:26.713Z,997.52
2018-05-15T00:38:07.238Z,997.51
2018-05-15T00:38:47.737Z,997.48
2018-05-15T00:39:28.267Z,997.5
2018-05-15T00:40:08.789Z,997.51
2018-05-15T00:40:49.296Z,997.46
2018-05-15T00:41:29.822Z,997.47
2018-05-15T00:42:10.368Z,997.51
2018-05-15T00:42:50.896Z,997.49
2018-05-15T00:43:31.427Z,997.49
2018-05-15T00:44:11.957Z,997.46
2018-05-15T00:44:52.490Z,997.46
2018-05-15T00:45:33.021Z,997.45
2018-05-15T00:46:13.549Z,997.49
2018-05-15T00:46:54.057Z,997.51
2018-05-15T00:47:34.579Z,997.52
2018-05-15T00:48:15.110Z,997.49
2018-05-15T00:48:55.647Z,997.51
2018-05-15T00:49:36.164Z,997.52
2018-05-15T00:50:16.684Z,997.5
2018-05-15T00:50:57.208Z,997.51
2018-05-15T00:51:37.737Z,997.47
2018-05-15T00:52:18.250Z,997.52
2018-05-15T00:52:58.772Z,997.48
2018-05-15T00:53:39.285Z,997.46
2018-05-15T00:54:19.817Z,997.44
2018-05-15T00:55:00.328Z,997.45
2018-05-15T00:55:40.862Z,997.43
2018-05-15T00:56:21.381Z,997.42
2018-05-15T00:57:01.904Z,997.47
2018-05-15T00:57:42.435Z,997.42
2018-05-15T00:58:22.952Z,997.44
2018-05-15T00:59:03.474Z,997.42
2018-05-15T00:59:43.981Z,997.43
2018-05-15T01:00:24.520Z,997.49
2018-05-15T01:01:05.053Z,997.47
2018-05-15T01:01:45.579Z,997.51
2018-05-15T01:02:26.099Z,997.46
2018-05-15T01:03:06.627Z,997.49
2018-05-15T01:03:47.143Z,997.49
2018-05-15T01:04:27.667Z,997.44
2018-05-15T01:05:08.193Z,997.48
2018-05-15T01:05:48.727Z,997.47
2018-05-15T01:06:29.261Z,997.47
2018-05-15T01:07:09.771Z,997.44
2018-05-15T01:07:50.292Z,997.44
2018-05-15T01:08:30.834Z,997.4
2018-05-15T01:09:11.340Z,997.39
2018-05-15T01:09:51.857Z,997.38
2018-05-15T01:10:32.380Z,997.43
2018-05-15T01:11:12.910Z,997.42
2018-05-15T01:11:53.428Z,997.39
2018-05-15T01:12:33.936Z,997.38
2018-05-15T01:13:14.465Z,997.36
2018-05-15T01:13:54.984Z,997.35
2018-05-15T01:14:35.502Z,997.33
2018-05-15T01:15:16.025Z,997.31
2018-05-15T01:15:56.538Z,997.32
2018-05-15T01:16:37.053Z,997.32
2018-05-15T01:17:17.574Z,997.33
2018-05-15T01:17:58.104Z,997.35
2018-05-15T01:18:38.611Z,997.35
2018-05-15T01:19:19.160Z,997.37
2018-05-15T01:19:59.670Z,997.37
2018-05-15T01:20:40.192Z,997.36
2018-05-15T01:21:20.706Z,997.41
2018-05-15T01:22:01.223Z,997.41
2018-05-15T01:22:41.748Z,997.36
2018-05-15T01:23:22.269Z,997.39
2018-05-15T01:24:02.786Z,997.38
2018-05-15T01:24:43.300Z,997.35
2018-05-15T01:25:23.815Z,997.35
2018-05-15T01:26:04.335Z,997.35
2018-05-15T01:26:44.839Z,997.38
2018-05-15T01:27:25.354Z,997.39
2018-05-15T01:28:05.885Z,997.35
2018-05-15T01:28:46.450Z,997.34
2018-05-15T01:29:26.904Z,997.34
2018-05-15T01:30:07.430Z,997.39
2018-05-15T01:30:47.945Z,997.39
2018-05-15T01:31:28.454Z,997.32
2018-05-15T01:32:08.983Z,997.36
2018-05-15T01:32:49.499Z,997.31
2018-05-15T01:33:30.015Z,997.34
2018-05-15T01:34:10.533Z,997.32
2018-05-15T01:34:51.065Z,997.3
2018-05-15T01:35:31.575Z,997.28
2018-05-15T01:36:12.095Z,997.29
2018-05-15T01:36:52.613Z,997.32
2018-05-15T01:37:33.119Z,997.28
2018-05-15T01:38:13.654Z,997.35
2018-05-15T01:38:54.149Z,997.4
2018-05-15T01:39:34.668Z,997.37
2018-05-15T01:40:15.180Z,997.36
2018-05-15T01:40:55.713Z,997.36
2018-05-15T01:41:36.232Z,997.36
2018-05-15T01:42:16.756Z,997.35
2018-05-15T01:42:57.288Z,997.38
2018-05-15T01:43:37.799Z,997.36
2018-05-15T01:44:18.315Z,997.39
2018-05-15T01:44:58.834Z,997.37
2018-05-15T01:45:39.361Z,997.38
2018-05-15T01:46:19.890Z,997.43
2018-05-15T01:47:00.409Z,997.46
2018-05-15T01:47:40.929Z,997.4
2018-05-15T01:48:21.452Z,997.37
2018-05-15T01:49:01.968Z,997.4
2018-05-15T01:49:42.475Z,997.31
2018-05-15T01:50:23.000Z,997.38
2018-05-15T01:51:03.522Z,997.36
2018-05-15T01:51:44.052Z,997.31
2018-05-15T01:52:24.571Z,997.33
2018-05-15T01:53:05.107Z,997.34
2018-05-15T01:53:45.620Z,997.31
2018-05-15T01:54:26.142Z,997.36
2018-05-15T01:55:06.657Z,997.34
2018-05-15T01:55:47.188Z,997.38
2018-05-15T01:56:27.703Z,997.44
2018-05-15T01:57:08.233Z,997.45
2018-05-15T01:57:48.746Z,997.43
2018-05-15T01:58:29.253Z,997.48
2018-05-15T01:59:09.778Z,997.45
2018-05-15T01:59:50.292Z,997.52
2018-05-15T02:00:30.813Z,997.52
2018-05-15T02:01:11.330Z,997.47
2018-05-15T02:01:51.849Z,997.45
2018-05-15T02:02:32.363Z,997.51
2018-05-15T02:03:12.894Z,997.45
2018-05-15T02:03:53.409Z,997.49
2018-05-15T02:04:33.936Z,997.48
2018-05-15T02:05:14.461Z,997.48
2018-05-15T02:05:55.002Z,997.5
2018-05-15T02:06:35.505Z,997.54
2018-05-15T02:07:16.030Z,997.56
2018-05-15T02:07:56.558Z,997.53
2018-05-15T02:08:37.080Z,997.55
2018-05-15T02:09:17.615Z,997.58
2018-05-15T02:09:58.139Z,997.53
2018-05-15T02:10:38.649Z,997.5
2018-05-15T02:11:19.168Z,997.49
2018-05-15T02:11:59.674Z,997.47
2018-05-15T02:12:40.199Z,997.47
2018-05-15T02:13:20.703Z,997.59
2018-05-15T02:14:01.225Z,997.56
2018-05-15T02:14:41.748Z,997.57
2018-05-15T02:15:22.272Z,997.57
2018-05-15T02:16:02.788Z,997.55
2018-05-15T02:16:43.308Z,997.56
2018-05-15T02:17:23.846Z,997.51
2018-05-15T02:18:04.361Z,997.54
2018-05-15T02:18:44.875Z,997.57
2018-05-15T02:19:25.387Z,997.59
2018-05-15T02:20:05.901Z,997.6
2018-05-15T02:20:46.427Z,997.54
2018-05-15T02:21:26.949Z,997.52
2018-05-15T02:22:07.473Z,997.53
2018-05-15T02:22:47.984Z,997.51
2018-05-15T02:23:28.507Z,997.5
2018-05-15T02:24:09.029Z,997.55
2018-05-15T02:24:49.544Z,997.53
2018-05-15T02:25:30.060Z,997.56
2018-05-15T02:26:10.576Z,997.55
2018-05-15T02:26:51.097Z,997.48
2018-05-15T02:27:31.609Z,997.46
2018-05-15T02:28:12.126Z,997.47
2018-05-15T02:28:52.659Z,997.45
2018-05-15T02:29:33.174Z,997.44
2018-05-15T02:30:13.701Z,997.43
2018-05-15T02:30:54.234Z,997.47
2018-05-15T02:31:34.763Z,997.43
2018-05-15T02:32:15.285Z,997.45
2018-05-15T02:32:55.800Z,997.46
2018-05-15T02:33:36.323Z,997.45
2018-05-15T02:34:16.836Z,997.44
2018-05-15T02:34:57.350Z,997.43
2018-05-15T02:35:37.865Z,997.46
2018-05-15T02:36:18.391Z,997.47
2018-05-15T02:36:58.904Z,997.48
2018-05-15T02:37:39.422Z,997.48
2018-05-15T02:38:19.937Z,997.5
2018-05-15T02:39:00.455Z,997.51
2018-05-15T02:39:40.963Z,997.48
2018-05-15T02:40:21.475Z,997.45
2018-05-15T02:41:01.994Z,997.43
2018-05-15T02:41:42.542Z,997.44
2018-05-15T02:42:23.051Z,997.45
2018-05-15T02:43:03.585Z,997.42
2018-05-15T02:43:44.083Z,997.45
2018-05-15T02:44:24.602Z,997.42
2018-05-15T02:45:05.130Z,997.41
2018-05-15T02:45:45.645Z,997.44
2018-05-15T02:46:26.167Z,997.47
2018-05-15T02:47:06.691Z,997.48
2018-05-15T02:47:47.214Z,997.49
2018-05-15T02:48:27.727Z,997.47
2018-05-15T02:49:08.241Z,997.45
2018-05-15T02:49:48.761Z,997.44
2018-05-15T02:50:29.281Z,997.49
2018-05-15T02:51:09.816Z,997.45
2018-05-15T02:51:50.332Z,997.46
2018-05-15T02:52:30.859Z,997.48
2018-05-15T02:53:11.370Z,997.48
2018-05-15T02:53:51.892Z,997.49
2018-05-15T02:54:32.411Z,997.48
2018-05-15T02:55:12.925Z,997.49
2018-05-15T02:55:53.446Z,997.44
2018-05-15T02:56:33.965Z,997.48
2018-05-15T02:57:14.476Z,997.5
2018-05-15T02:57:54.996Z,997.46
2018-05-15T02:58:35.516Z,997.47
2018-05-15T02:59:16.032Z,997.46
2018-05-15T02:59:56.558Z,997.47
2018-05-15T03:00:37.083Z,997.46
2018-05-15T03:01:17.606Z,997.47
2018-05-15T03:01:58.139Z,997.48
2018-05-15T03:02:38.666Z,997.47
2018-05-15T03:03:19.183Z,997.47
2018-05-15T03:03:59.921Z,997.48
2018-05-15T03:04:40.436Z,997.48
2018-05-15T03:05:21.129Z,997.53
2018-05-15T03:06:01.852Z,997.49
2018-05-15T03:06:42.579Z,997.5
2018-05-15T03:07:23.288Z,997.49
2018-05-15T03:08:03.645Z,997.51
2018-05-15T03:08:44.285Z,997.46
2018-05-15T03:09:24.705Z,997.54
2018-05-15T03:10:05.196Z,997.55
2018-05-15T03:10:45.698Z,997.56
2018-05-15T03:11:26.202Z,997.56
2018-05-15T03:12:06.668Z,997.57
2018-05-15T03:12:47.194Z,997.55
2018-05-15T03:13:27.744Z,997.59
2018-05-15T03:14:08.268Z,997.56
2018-05-15T03:14:48.771Z,997.53
2018-05-15T03:15:29.291Z,997.55
2018-05-15T03:16:09.821Z,997.59
2018-05-15T03:16:50.343Z,997.57
2018-05-15T03:17:30.913Z,997.54
2018-05-15T03:18:11.378Z,997.58
2018-05-15T03:18:51.889Z,997.56
2018-05-15T03:19:32.419Z,997.55
2018-05-15T03:20:12.913Z,997.57
2018-05-15T03:20:53.433Z,997.55
2018-05-15T03:21:33.950Z,997.59
2018-05-15T03:22:14.464Z,997.55
2018-05-15T03:22:54.990Z,997.59
2018-05-15T03:23:35.513Z,997.65
2018-05-15T03:24:16.031Z,997.63
2018-05-15T03:24:56.555Z,997.59
2018-05-15T03:25:37.075Z,997.61
2018-05-15T03:26:17.588Z,997.6
2018-05-15T03:26:58.105Z,997.63
2018-05-15T03:27:38.618Z,997.68
2018-05-15T03:28:19.142Z,997.62
2018-05-15T03:28:59.643Z,997.62
2018-05-15T03:29:40.164Z,997.62
2018-05-15T03:30:20.680Z,997.68
2018-05-15T03:31:01.205Z,997.68
2018-05-15T03:31:41.735Z,997.68
2018-05-15T03:32:22.253Z,997.71
2018-05-15T03:33:02.774Z,997.69
2018-05-15T03:33:43.297Z,997.67
2018-05-15T03:34:23.810Z,997.77
2018-05-15T03:35:04.347Z,997.75
2018-05-15T03:35:44.858Z,997.77
2018-05-15T03:36:25.401Z,997.75
2018-05-15T03:37:05.944Z,997.73
2018-05-15T03:37:46.463Z,997.7
2018-05-15T03:38:26.982Z,997.76
2018-05-15T03:39:07.498Z,997.74
2018-05-15T03:39:48.010Z,997.74
2018-05-15T03:40:28.529Z,997.78
2018-05-15T03:41:09.053Z,997.74
2018-05-15T03:41:49.579Z,997.78
2018-05-15T03:42:30.092Z,997.76
2018-05-15T03:43:10.619Z,997.83
2018-05-15T03:43:51.129Z,997.86
2018-05-15T03:44:31.641Z,997.81
2018-05-15T03:45:12.159Z,997.83
2018-05-15T03:45:52.674Z,997.87
2018-05-15T03:46:33.215Z,997.82
2018-05-15T03:47:13.724Z,997.82
2018-05-15T03:47:54.236Z,997.84
2018-05-15T03:48:34.761Z,997.84
2018-05-15T03:49:15.277Z,997.82
2018-05-15T03:49:55.796Z,997.84
2018-05-15T03:50:36.331Z,997.82
2018-05-15T03:51:16.838Z,997.82
2018-05-15T03:51:57.362Z,997.84
2018-05-15T03:52:37.874Z,997.84
2018-05-15T03:53:18.388Z,997.87
2018-05-15T03:53:58.907Z,997.9
2018-05-15T03:54:39.424Z,997.91
2018-05-15T03:55:19.950Z,997.96
2018-05-15T03:56:00.474Z,997.91
2018-05-15T03:56:41.004Z,997.95
2018-05-15T03:57:21.525Z,997.97
2018-05-15T03:58:02.040Z,997.95
2018-05-15T03:58:42.556Z,997.95
2018-05-15T03:59:23.112Z,997.97
2018-05-15T04:00:03.631Z,997.97
2018-05-15T04:00:44.164Z,998.04
2018-05-15T04:01:24.684Z,997.97
2018-05-15T04:02:05.207Z,997.97
2018-05-15T04:02:45.717Z,998.01
2018-05-15T04:03:26.221Z,998
2018-05-15T04:04:06.742Z,998.03
2018-05-15T04:04:47.263Z,998.04
2018-05-15T04:05:27.777Z,998.08
2018-05-15T04:06:08.287Z,998
2018-05-15T04:06:48.813Z,998.05
2018-05-15T04:07:29.344Z,998.06
2018-05-15T04:08:09.851Z,998.08
2018-05-15T04:08:50.376Z,998.08
2018-05-15T04:09:30.899Z,998.09
2018-05-15T04:10:11.408Z,998.07
2018-05-15T04:10:51.961Z,998.1
2018-05-15T04:11:32.448Z,998.12
2018-05-15T04:12:12.969Z,998.09
2018-05-15T04:12:53.494Z,998.11
2018-05-15T04:13:34.008Z,998.08
2018-05-15T04:14:14.526Z,998.12
2018-05-15T04:14:55.046Z,998.09
2018-05-15T04:15:35.579Z,998.13
2018-05-15T04:16:16.079Z,998.15
2018-05-15T04:16:56.585Z,998.14
2018-05-15T04:17:37.084Z,998.16
2018-05-15T04:18:17.606Z,998.16
2018-05-15T04:18:58.131Z,998.18
2018-05-15T04:19:38.648Z,998.15
2018-05-15T04:20:19.177Z,998.19
2018-05-15T04:20:59.693Z,998.16
2018-05-15T04:21:40.212Z,998.2
2018-05-15T04:22:20.740Z,998.2
2018-05-15T04:23:01.254Z,998.22
2018-05-15T04:23:41.784Z,998.22
2018-05-15T04:24:22.303Z,998.29
2018-05-15T04:25:02.816Z,998.28
2018-05-15T04:25:43.341Z,998.32
2018-05-15T04:26:23.853Z,998.26
2018-05-15T04:27:04.365Z,998.25
2018-05-15T04:27:44.893Z,998.31
2018-05-15T04:28:25.496Z,998.33
2018-05-15T04:29:05.919Z,998.37
2018-05-15T04:29:46.443Z,998.33
2018-05-15T04:30:26.973Z,998.35
2018-05-15T04:31:07.484Z,998.34
2018-05-15T04:31:48.010Z,998.33
2018-05-15T04:32:28.512Z,998.32
2018-05-15T04:33:09.039Z,998.31
2018-05-15T04:33:49.571Z,998.32
2018-05-15T04:34:30.096Z,998.37
2018-05-15T04:35:10.681Z,998.34
2018-05-15T04:35:51.118Z,998.33
2018-05-15T04:36:31.633Z,998.3
2018-05-15T04:37:12.240Z,998.38
2018-05-15T04:37:52.709Z,998.37
2018-05-15T04:38:33.164Z,998.37
2018-05-15T04:39:13.634Z,998.39
2018-05-15T04:39:54.147Z,998.36
2018-05-15T04:40:34.668Z,998.39
2018-05-15T04:41:15.176Z,998.41
2018-05-15T04:41:55.693Z,998.38
2018-05-15T04:42:36.229Z,998.4
2018-05-15T04:43:16.751Z,998.42
2018-05-15T04:43:57.339Z,998.39
2018-05-15T04:44:37.823Z,998.4
2018-05-15T04:45:18.333Z,998.43
2018-05-15T04:45:58.849Z,998.42
2018-05-15T04:46:39.363Z,998.42
2018-05-15T04:47:19.878Z,998.44
2018-05-15T04:48:00.398Z,998.43
2018-05-15T04:48:40.903Z,998.41
2018-05-15T04:49:21.498Z,998.45
2018-05-15T04:50:01.932Z,998.43
2018-05-15T04:50:42.605Z,998.45
2018-05-15T04:51:23.049Z,998.44
2018-05-15T04:52:03.515Z,998.45
2018-05-15T04:52:44.032Z,998.48
2018-05-15T04:53:24.549Z,998.43
2018-05-15T04:54:05.065Z,998.48
2018-05-15T04:54:45.581Z,998.44
2018-05-15T04:55:26.092Z,998.43
2018-05-15T04:56:06.630Z,998.44
2018-05-15T04:56:47.156Z,998.45
2018-05-15T04:57:27.677Z,998.5
2018-05-15T04:58:08.198Z,998.47
2018-05-15T04:58:48.703Z,998.49
2018-05-15T04:59:29.221Z,998.46
2018-05-15T05:00:09.750Z,998.5
2018-05-15T05:00:50.255Z,998.46
2018-05-15T05:01:30.789Z,998.48
2018-05-15T05:02:11.308Z,998.49
2018-05-15T05:02:51.829Z,998.49
2018-05-15T05:03:32.351Z,998.52
2018-05-15T05:04:12.885Z,998.51
2018-05-15T05:04:53.368Z,998.51
2018-05-15T05:05:33.898Z,998.53
2018-05-15T05:06:14.419Z,998.51
2018-05-15T05:06:54.948Z,998.57
2018-05-15T05:07:35.446Z,998.55
2018-05-15T05:08:15.979Z,998.62
2018-05-15T05:08:56.501Z,998.6
2018-05-15T05:09:37.017Z,998.6
2018-05-15T05:10:17.539Z,998.63
2018-05-15T05:10:58.089Z,998.63
2018-05-15T05:11:38.588Z,998.67
2018-05-15T05:12:19.112Z,998.64
2018-05-15T05:12:59.659Z,998.56
2018-05-15T05:13:40.175Z,998.57
2018-05-15T05:14:20.689Z,998.6
2018-05-15T05:15:01.201Z,998.56
2018-05-15T05:15:41.726Z,998.53
2018-05-15T05:16:22.222Z,998.55
2018-05-15T05:17:02.753Z,998.56
2018-05-15T05:17:43.263Z,998.58
2018-05-15T05:18:23.815Z,998.61
2018-05-15T05:19:04.345Z,998.6
2018-05-15T05:19:44.869Z,998.65
2018-05-15T05:20:25.394Z,998.62
2018-05-15T05:21:05.948Z,998.67
2018-05-15T05:21:46.444Z,998.63
2018-05-15T05:22:26.956Z,998.65
2018-05-15T05:23:07.469Z,998.67
2018-05-15T05:23:48.004Z,998.64
2018-05-15T05:24:28.532Z,998.61
2018-05-15T05:25:09.043Z,998.65
2018-05-15T05:25:49.551Z,998.68
2018-05-15T05:26:30.070Z,998.72
2018-05-15T05:27:10.598Z,998.71
2018-05-15T05:27:51.112Z,998.69
2018-05-15T05:28:31.648Z,998.7
2018-05-15T05:29:12.184Z,998.7
2018-05-15T05:29:52.746Z,998.73
2018-05-15T05:30:33.542Z,998.72
2018-05-15T05:31:14.051Z,998.72
2018-05-15T05:31:54.583Z,998.69
2018-05-15T05:32:35.107Z,998.69
2018-05-15T05:33:15.717Z,998.68
2018-05-15T05:33:56.342Z,998.7
2018-05-15T05:34:36.688Z,998.72
2018-05-15T05:35:17.296Z,998.74
2018-05-15T05:35:57.818Z,998.71
2018-05-15T05:36:38.340Z,998.77
2018-05-15T05:37:18.866Z,998.75
2018-05-15T05:37:59.398Z,998.78
2018-05-15T05:38:39.922Z,998.83
2018-05-15T05:39:20.441Z,998.83
2018-05-15T05:40:00.973Z,998.76
2018-05-15T05:40:41.484Z,998.81
2018-05-15T05:41:22.041Z,998.81
2018-05-15T05:42:02.570Z,998.81
2018-05-15T05:42:43.105Z,998.84
2018-05-15T05:43:23.641Z,998.82
2018-05-15T05:44:04.154Z,998.85
2018-05-15T05:44:44.685Z,998.81
2018-05-15T05:45:25.206Z,998.8
2018-05-15T05:46:05.886Z,998.83
2018-05-15T05:46:46.397Z,998.87
2018-05-15T05:47:26.923Z,998.85
2018-05-15T05:48:07.461Z,998.84
2018-05-15T05:48:47.983Z,998.87
2018-05-15T05:49:28.513Z,998.9
2018-05-15T05:50:09.040Z,998.9
2018-05-15T05:50:49.568Z,998.92
2018-05-15T05:51:30.086Z,998.92
2018-05-15T05:52:10.632Z,998.93
2018-05-15T05:52:51.148Z,998.98
2018-05-15T05:53:31.658Z,998.97
2018-05-15T05:54:12.181Z,998.99
2018-05-15T05:54:52.713Z,998.98
2018-05-15T05:55:33.235Z,999.03
2018-05-15T05:56:13.758Z,999.02
2018-05-15T05:56:54.282Z,998.99
2018-05-15T05:57:34.814Z,998.97
2018-05-15T05:58:15.344Z,999.01
2018-05-15T05:58:55.858Z,999.02
2018-05-15T05:59:36.389Z,999.01
2018-05-15T06:00:16.915Z,999.06
2018-05-15T06:00:57.441Z,999.04
2018-05-15T06:01:37.976Z,999
2018-05-15T06:02:18.506Z,998.99
2018-05-15T06:02:59.023Z,999.03
2018-05-15T06:03:39.540Z,999.08
2018-05-15T06:04:20.056Z,999.08
2018-05-15T06:05:00.570Z,999.04
2018-05-15T06:05:41.089Z,999.07
2018-05-15T06:06:21.658Z,999.08
2018-05-15T06:07:02.181Z,999.1
2018-05-15T06:07:42.747Z,999.1
2018-05-15T06:08:23.434Z,999.11
2018-05-15T06:09:03.957Z,999.1
2018-05-15T06:09:44.476Z,999.11
2018-05-15T06:10:24.982Z,999.1
2018-05-15T06:11:05.513Z,999.1
2018-05-15T06:11:46.077Z,999.09
2018-05-15T06:12:26.604Z,999.14
2018-05-15T06:13:07.135Z,999.14
2018-05-15T06:13:47.644Z,999.14
2018-05-15T06:14:28.166Z,999.16
2018-05-15T06:15:08.704Z,999.2
2018-05-15T06:15:49.228Z,999.15
2018-05-15T06:16:29.745Z,999.18
2018-05-15T06:17:10.259Z,999.17
2018-05-15T06:17:50.795Z,999.15
2018-05-15T06:18:31.308Z,999.18
2018-05-15T06:19:11.844Z,999.16
2018-05-15T06:19:52.394Z,999.2
2018-05-15T06:20:32.907Z,999.22
2018-05-15T06:21:13.464Z,999.27
2018-05-15T06:21:54.002Z,999.28
2018-05-15T06:22:34.508Z,999.29
2018-05-15T06:23:15.033Z,999.29
2018-05-15T06:23:55.635Z,999.3
2018-05-15T06:24:36.254Z,999.32
2018-05-15T06:25:16.788Z,999.34
2018-05-15T06:25:57.318Z,999.3
2018-05-15T06:26:37.854Z,999.27
2018-05-15T06:27:18.376Z,999.29
2018-05-15T06:27:58.891Z,999.37
2018-05-15T06:28:39.483Z,999.36
2018-05-15T06:29:20.048Z,999.33
2018-05-15T06:30:00.805Z,999.41
2018-05-15T06:30:41.315Z,999.42
2018-05-15T06:31:21.840Z,999.48
2018-05-15T06:32:02.359Z,999.44
2018-05-15T06:32:42.901Z,999.47
2018-05-15T06:33:23.687Z,999.44
2018-05-15T06:34:04.202Z,999.42
2018-05-15T06:34:44.698Z,999.43
2018-05-15T06:35:25.210Z,999.43
2018-05-15T06:36:05.738Z,999.46
2018-05-15T06:36:46.228Z,999.45
2018-05-15T06:37:26.725Z,999.41
2018-05-15T06:38:07.241Z,999.47
2018-05-15T06:38:47.723Z,999.43
2018-05-15T06:39:28.252Z,999.39
2018-05-15T06:40:08.836Z,999.36
2018-05-15T06:40:49.383Z,999.38
2018-05-15T06:41:29.899Z,999.39
2018-05-15T06:42:10.413Z,999.35
2018-05-15T06:42:50.944Z,999.41
2018-05-15T06:43:31.477Z,999.38
2018-05-15T06:44:12.026Z,999.35
2018-05-15T06:44:52.615Z,999.38
2018-05-15T06:45:33.101Z,999.39
2018-05-15T06:46:13.605Z,999.43
2018-05-15T06:46:54.112Z,999.4
2018-05-15T06:47:34.647Z,999.48
2018-05-15T06:48:15.160Z,999.44
2018-05-15T06:48:55.683Z,999.45
2018-05-15T06:49:36.198Z,999.41
2018-05-15T06:50:16.782Z,999.37
2018-05-15T06:50:57.296Z,999.4
2018-05-15T06:51:37.824Z,999.38
2018-05-15T06:52:18.378Z,999.39
2018-05-15T06:52:58.895Z,999.35
2018-05-15T06:53:39.410Z,999.43
2018-05-15T06:54:19.947Z,999.37
2018-05-15T06:55:00.487Z,999.34
2018-05-15T06:55:41.000Z,999.34
2018-05-15T06:56:21.538Z,999.36
2018-05-15T06:57:02.061Z,999.33
2018-05-15T06:57:42.599Z,999.33
2018-05-15T06:58:23.116Z,999.33
2018-05-15T06:59:03.642Z,999.3
2018-05-15T06:59:44.220Z,999.32
2018-05-15T07:00:24.749Z,999.38
2018-05-15T07:01:05.259Z,999.41
2018-05-15T07:01:45.803Z,999.43
2018-05-15T07:02:26.322Z,999.42
2018-05-15T07:03:06.850Z,999.44
2018-05-15T07:03:47.376Z,999.38
2018-05-15T07:04:27.894Z,999.42
2018-05-15T07:05:08.409Z,999.47
2018-05-15T07:05:48.939Z,999.44
2018-05-15T07:06:29.463Z,999.4
2018-05-15T07:07:10.017Z,999.41
2018-05-15T07:07:50.622Z,999.48
2018-05-15T07:08:31.047Z,999.48
2018-05-15T07:09:12.182Z,999.43
2018-05-15T07:09:52.705Z,999.46
2018-05-15T07:10:33.237Z,999.44
2018-05-15T07:11:13.789Z,999.46
2018-05-15T07:11:55.160Z,999.55
2018-05-15T07:12:35.683Z,999.4
2018-05-15T07:13:16.205Z,999.51
2018-05-15T07:13:56.720Z,999.47
2018-05-15T07:29:02.086Z,999.56
2018-05-15T07:29:42.608Z,999.58
2018-05-15T07:30:23.142Z,999.55
2018-05-15T07:31:03.637Z,999.6
2018-05-15T07:31:44.164Z,999.59
2018-05-15T07:32:24.692Z,999.67
2018-05-15T07:33:05.952Z,999.55
2018-05-15T07:33:46.453Z,999.59
2018-05-15T07:34:27.106Z,999.59
2018-05-15T07:35:08.224Z,999.59
2018-05-15T07:35:48.748Z,999.55
2018-05-15T07:36:29.279Z,999.59
2018-05-15T07:37:09.798Z,999.63
2018-05-15T07:37:50.942Z,999.57
2018-05-15T07:38:31.465Z,999.62
2018-05-15T07:39:11.991Z,999.55
2018-05-15T07:39:52.519Z,999.56
2018-05-15T07:40:34.033Z,999.58
2018-05-15T07:41:15.351Z,999.57
2018-05-15T07:41:55.886Z,999.66
2018-05-15T07:42:36.422Z,999.65
2018-05-15T07:43:16.939Z,999.65
2018-05-15T07:43:58.346Z,999.66
2018-05-15T07:44:38.636Z,999.62
2018-05-15T07:45:19.179Z,999.6
2018-05-15T07:45:59.667Z,999.67
2018-05-15T07:46:40.190Z,999.64
2018-05-15T07:47:20.715Z,999.59
2018-05-15T07:48:01.241Z,999.61
2018-05-15T07:48:41.755Z,999.58
2018-05-15T07:49:22.275Z,999.63
2018-05-15T07:50:02.920Z,999.59
2018-05-15T07:50:43.625Z,999.58
2018-05-15T07:51:38.803Z,999.58
2018-05-15T07:52:19.386Z,999.62
2018-05-15T07:52:59.906Z,999.55
2018-05-15T07:53:40.646Z,999.63
2018-05-15T07:54:21.041Z,999.65
2018-05-15T07:55:01.563Z,999.57
2018-05-15T07:55:42.066Z,999.61
2018-05-15T07:56:22.584Z,999.55
2018-05-15T07:57:03.130Z,999.56
2018-05-15T07:57:43.658Z,999.61
2018-05-15T07:58:24.252Z,999.57
2018-05-15T07:59:05.249Z,999.63
2018-05-15T07:59:45.792Z,999.62
2018-05-15T08:00:26.313Z,999.59
2018-05-15T08:01:06.802Z,999.58
2018-05-15T08:01:47.399Z,999.61
2018-05-15T08:02:30.741Z,999.64
2018-05-15T08:03:11.537Z,999.64
2018-05-15T08:03:53.914Z,999.58
2018-05-15T08:04:35.130Z,999.66
2018-05-15T08:05:17.182Z,999.53
2018-05-15T08:06:00.351Z,999.61
2018-05-15T08:06:42.980Z,999.59
2018-05-15T08:07:23.691Z,999.62
2018-05-15T08:08:05.684Z,999.64
2018-05-15T08:08:47.523Z,999.64
2018-05-15T08:09:28.964Z,999.62
2018-05-15T08:10:10.745Z,999.6
2018-05-15T08:10:52.449Z,999.66
2018-05-15T08:11:34.123Z,999.63
2018-05-15T08:12:15.839Z,999.58
2018-05-15T08:12:56.780Z,999.61
2018-05-15T08:13:38.071Z,999.58
2018-05-15T08:14:50.069Z,999.58
2018-05-15T08:15:30.666Z,999.55
2018-05-15T08:16:14.504Z,999.65
2018-05-15T08:16:55.385Z,999.58
2018-05-15T08:17:35.968Z,999.61
2018-05-15T08:18:16.481Z,999.6
2018-05-15T08:18:56.993Z,999.63
2018-05-15T08:19:37.569Z,999.65
2018-05-15T08:20:18.099Z,999.65
2018-05-15T08:20:58.624Z,999.62
2018-05-15T08:21:39.152Z,999.65
2018-05-15T08:22:19.748Z,999.68
2018-05-15T08:23:00.187Z,999.63
2018-05-15T08:23:40.776Z,999.71
2018-05-15T08:24:21.369Z,999.66
2018-05-15T08:25:01.887Z,999.67
2018-05-15T08:25:42.440Z,999.67
2018-05-15T08:26:22.902Z,999.7
2018-05-15T08:27:03.428Z,999.75
2018-05-15T08:27:43.953Z,999.71
2018-05-15T08:28:24.497Z,999.75
2018-05-15T08:29:05.029Z,999.77
2018-05-15T08:29:45.556Z,999.67
2018-05-15T08:30:26.074Z,999.67
2018-05-15T08:41:56.947Z,999.71
2018-05-15T08:42:37.470Z,999.76
2018-05-15T08:43:17.987Z,999.73
2018-05-15T08:43:58.519Z,999.77
2018-05-15T08:44:39.050Z,999.78
2018-05-15T08:45:19.638Z,999.72
2018-05-15T08:46:00.084Z,999.76
2018-05-15T08:46:40.602Z,999.8
2018-05-15T08:47:21.135Z,999.78
2018-05-15T08:48:01.713Z,999.76
2018-05-15T08:48:42.234Z,999.75
2018-05-15T08:49:22.914Z,999.72
2018-05-15T08:50:03.442Z,999.83
2018-05-15T08:50:43.974Z,999.79
2018-05-15T08:51:24.559Z,999.8
2018-05-15T08:52:05.042Z,999.77
2018-05-15T08:52:45.578Z,999.81
2018-05-15T08:53:26.114Z,999.85